createdAt,value
2022-12-31T00:01:27.390Z,0.82
2022-12-31T00:03:55.250Z,0.80
2022-12-31T00:06:33.199Z,0.77
2022-12-31T00:09:01.302Z,0.80
2022-12-31T00:11:28.857Z,0.82
2022-12-31T00:13:55.627Z,0.80
2022-12-31T00:16:26.852Z,1.00
2022-12-31T00:18:55.928Z,0.88
2022-12-31T00:21:22.743Z,0.73
2022-12-31T00:23:49.547Z,0.60
2022-12-31T00:26:18.959Z,0.60
2022-12-31T00:28:45.640Z,0.60
2022-12-31T00:31:17.979Z,0.63
2022-12-31T00:33:45.073Z,0.60
2022-12-31T00:36:14.379Z,0.43
2022-12-31T00:38:43.037Z,0.60
2022-12-31T00:41:10.779Z,0.60
2022-12-31T00:43:37.398Z,0.50
2022-12-31T00:46:05.187Z,0.70
2022-12-31T00:48:32.701Z,0.57
2022-12-31T00:53:26.314Z,0.40
2022-12-31T00:55:52.904Z,0.63
2022-12-31T00:58:19.395Z,0.70
2022-12-31T01:00:45.702Z,0.70
2022-12-31T01:03:12.004Z,0.57
2022-12-31T01:05:38.445Z,0.50
2022-12-31T01:08:06.239Z,0.70
2022-12-31T01:10:32.707Z,0.50
2022-12-31T01:13:00.033Z,0.40
2022-12-31T01:15:26.552Z,0.40
2022-12-31T01:17:52.928Z,0.40
2022-12-31T01:20:19.208Z,0.57
2022-12-31T01:22:45.499Z,0.40
2022-12-31T01:25:11.870Z,0.40
2022-12-31T01:27:38.314Z,0.40
2022-12-31T01:30:05.409Z,0.50
2022-12-31T01:32:31.786Z,0.50
2022-12-31T01:34:58.112Z,0.52
2022-12-31T01:37:24.441Z,0.30
2022-12-31T01:39:50.734Z,0.43
2022-12-31T01:42:17.034Z,0.30
2022-12-31T01:44:50.861Z,0.40
2022-12-31T01:47:27.658Z,0.22
2022-12-31T01:50:03.031Z,0.40
2022-12-31T01:52:34.593Z,0.32
2022-12-31T01:55:39.837Z,0.40
2022-12-31T01:58:17.204Z,0.40
2022-12-31T02:00:44.349Z,0.50
2022-12-31T02:03:12.257Z,0.50
2022-12-31T02:06:05.207Z,0.40
2022-12-31T02:08:34.612Z,0.60
2022-12-31T02:11:20.811Z,0.40
2022-12-31T02:13:47.317Z,0.30
2022-12-31T02:16:21.363Z,0.40
2022-12-31T02:19:05.927Z,0.50
2022-12-31T02:21:57.671Z,0.40
2022-12-31T02:24:51.042Z,0.50
2022-12-31T02:27:34.401Z,0.40
2022-12-31T02:30:16.930Z,0.50
2022-12-31T02:32:52.151Z,0.40
2022-12-31T02:35:30.737Z,0.40
2022-12-31T02:38:02.759Z,0.30
2022-12-31T02:40:29.649Z,0.40
2022-12-31T02:42:56.036Z,0.52
2022-12-31T02:45:30.667Z,0.40
2022-12-31T02:48:22.389Z,0.40
2022-12-31T02:53:47.371Z,0.30
2022-12-31T02:56:23.893Z,0.50
2022-12-31T02:59:16.889Z,0.45
2022-12-31T03:01:46.839Z,0.30
2022-12-31T03:04:14.476Z,0.60
2022-12-31T03:06:42.284Z,0.30
2022-12-31T03:09:08.662Z,0.40
2022-12-31T03:11:34.996Z,0.60
2022-12-31T03:14:01.295Z,0.40
2022-12-31T03:16:27.700Z,0.60
2022-12-31T03:18:54.077Z,0.40
2022-12-31T03:21:20.422Z,0.40
2022-12-31T03:23:46.704Z,0.50
2022-12-31T03:26:13.162Z,0.40
2022-12-31T03:28:41.902Z,0.43
2022-12-31T03:31:08.525Z,0.50
2022-12-31T03:33:37.679Z,0.35
2022-12-31T03:36:06.282Z,0.40
2022-12-31T03:38:32.579Z,0.50
2022-12-31T03:40:59.128Z,0.40
2022-12-31T03:43:25.882Z,0.40
2022-12-31T03:45:53.757Z,0.50
2022-12-31T03:48:24.028Z,0.40
2022-12-31T03:50:50.890Z,0.47
2022-12-31T03:53:17.419Z,0.40
2022-12-31T03:55:43.847Z,0.40
2022-12-31T03:58:10.376Z,0.40
2022-12-31T04:00:36.699Z,0.40
2022-12-31T04:03:03.100Z,0.30
2022-12-31T04:05:29.437Z,0.40
2022-12-31T04:07:55.751Z,0.25
2022-12-31T04:10:22.106Z,0.50
2022-12-31T04:12:48.539Z,0.30
2022-12-31T04:15:19.058Z,0.40
2022-12-31T04:17:45.881Z,0.40
2022-12-31T04:20:12.753Z,0.60
2022-12-31T04:22:39.293Z,0.47
2022-12-31T04:25:07.014Z,0.40
2022-12-31T04:27:33.328Z,0.50
2022-12-31T04:29:59.608Z,0.50
2022-12-31T04:32:25.895Z,0.50
2022-12-31T04:34:52.217Z,0.40
2022-12-31T04:37:18.559Z,0.40
2022-12-31T04:39:44.960Z,0.70
2022-12-31T04:42:11.259Z,0.47
2022-12-31T04:44:37.573Z,0.40
2022-12-31T04:47:03.958Z,0.40
2022-12-31T04:49:30.253Z,0.50
2022-12-31T04:51:56.531Z,0.40
2022-12-31T04:54:22.898Z,0.40
2022-12-31T04:56:49.383Z,0.40
2022-12-31T04:59:15.677Z,0.40
2022-12-31T05:01:42.035Z,0.47
2022-12-31T05:04:08.392Z,0.50
2022-12-31T05:06:34.735Z,0.63
2022-12-31T05:09:01.239Z,0.50
2022-12-31T05:11:27.670Z,0.35
2022-12-31T05:13:53.960Z,0.60
2022-12-31T05:16:20.443Z,0.60
2022-12-31T05:18:46.948Z,0.70
2022-12-31T05:21:19.541Z,0.85
2022-12-31T05:23:46.006Z,0.68
2022-12-31T05:26:12.447Z,0.90
2022-12-31T05:28:38.825Z,0.90
2022-12-31T05:31:05.187Z,0.82
2022-12-31T05:33:31.497Z,0.68
2022-12-31T05:35:57.896Z,0.63
2022-12-31T05:38:25.397Z,0.60
2022-12-31T05:41:05.703Z,0.70
2022-12-31T05:43:32.171Z,0.60
2022-12-31T05:46:03.102Z,0.50
2022-12-31T05:48:30.356Z,0.60
2022-12-31T05:50:56.793Z,0.70
2022-12-31T05:53:23.087Z,0.50
2022-12-31T05:55:49.637Z,0.60
2022-12-31T05:58:16.192Z,0.60
2022-12-31T06:00:42.865Z,0.70
2022-12-31T06:03:09.440Z,0.77
2022-12-31T06:05:39.408Z,0.70
2022-12-31T06:08:05.833Z,0.60
2022-12-31T06:10:32.257Z,0.77
2022-12-31T06:12:58.558Z,0.60
2022-12-31T06:15:24.945Z,0.73
2022-12-31T06:17:51.277Z,0.70
2022-12-31T06:20:17.696Z,0.70
2022-12-31T06:22:44.060Z,0.60
2022-12-31T06:25:10.445Z,0.60
2022-12-31T06:27:36.774Z,0.65
2022-12-31T06:30:03.250Z,0.52
2022-12-31T06:32:29.560Z,0.63
2022-12-31T06:34:55.877Z,0.70
2022-12-31T06:37:22.292Z,0.60
2022-12-31T06:39:48.951Z,0.60
2022-12-31T06:42:15.291Z,0.60
2022-12-31T06:44:41.592Z,0.70
2022-12-31T06:47:07.955Z,0.65
2022-12-31T06:49:34.246Z,0.55
2022-12-31T06:52:00.570Z,0.90
2022-12-31T06:54:26.944Z,1.00
2022-12-31T06:56:53.508Z,0.80
2022-12-31T06:59:28.182Z,0.65
2022-12-31T07:02:12.848Z,0.77
2022-12-31T07:05:08.788Z,0.60
2022-12-31T07:07:48.470Z,0.60
2022-12-31T07:10:29.422Z,0.98
2022-12-31T07:13:34.055Z,0.70
2022-12-31T07:16:09.680Z,0.70
2022-12-31T07:18:56.322Z,0.80
2022-12-31T07:21:34.858Z,0.63
2022-12-31T07:24:01.737Z,0.80
2022-12-31T07:26:55.993Z,0.63
2022-12-31T07:29:29.901Z,1.00
2022-12-31T07:32:45.514Z,0.70
2022-12-31T07:35:31.227Z,0.90
2022-12-31T07:38:10.223Z,0.70
2022-12-31T07:40:54.057Z,0.98
2022-12-31T07:43:54.609Z,0.80
2022-12-31T07:46:53.958Z,0.60
2022-12-31T07:49:20.579Z,0.60
2022-12-31T07:51:47.542Z,0.88
2022-12-31T07:54:14.542Z,1.08
2022-12-31T07:56:42.141Z,1.10
2022-12-31T07:59:31.543Z,0.80
2022-12-31T08:02:19.907Z,0.55
2022-12-31T08:05:15.583Z,0.60
2022-12-31T08:07:58.385Z,0.60
2022-12-31T08:10:40.417Z,0.70
2022-12-31T08:13:11.772Z,0.70
2022-12-31T08:15:40.326Z,0.60
2022-12-31T08:18:07.895Z,0.70
2022-12-31T08:20:49.428Z,0.60
2022-12-31T08:23:28.919Z,0.60
2022-12-31T08:26:18.441Z,0.57
2022-12-31T08:29:10.450Z,0.70
2022-12-31T08:32:12.643Z,0.73
2022-12-31T08:34:55.388Z,0.90
2022-12-31T08:37:27.175Z,0.77
2022-12-31T08:40:30.922Z,0.60
2022-12-31T08:45:48.542Z,0.52
2022-12-31T08:48:29.542Z,0.60
2022-12-31T08:50:56.241Z,0.77
2022-12-31T08:53:22.783Z,1.00
2022-12-31T08:55:56.752Z,0.50
2022-12-31T08:58:41.745Z,0.60
2022-12-31T09:01:08.800Z,0.50
2022-12-31T09:04:11.888Z,0.70
2022-12-31T09:06:44.187Z,0.50
2022-12-31T09:09:26.847Z,0.82
2022-12-31T09:12:15.206Z,0.60
2022-12-31T09:14:55.828Z,0.60
2022-12-31T09:17:39.653Z,0.50
2022-12-31T09:20:06.801Z,0.52
2022-12-31T09:22:33.258Z,0.47
2022-12-31T09:24:59.908Z,0.60
2022-12-31T09:27:40.705Z,0.65
2022-12-31T09:30:11.541Z,0.57
2022-12-31T09:33:01.034Z,0.50
2022-12-31T09:35:38.416Z,0.77
2022-12-31T09:38:16.548Z,0.80
2022-12-31T09:41:04.643Z,0.73
2022-12-31T09:44:12.084Z,0.80
2022-12-31T09:47:06.207Z,0.50
2022-12-31T09:49:54.502Z,0.60
2022-12-31T09:52:58.144Z,0.50
2022-12-31T09:58:02.756Z,0.80
2022-12-31T10:00:43.342Z,0.65
2022-12-31T10:03:40.513Z,0.50
2022-12-31T10:06:09.933Z,0.77
2022-12-31T10:09:10.303Z,1.02
2022-12-31T10:11:46.066Z,0.82
2022-12-31T10:14:15.336Z,0.80
2022-12-31T10:17:14.577Z,0.57
2022-12-31T10:19:49.913Z,0.60
2022-12-31T10:22:19.308Z,0.40
2022-12-31T10:24:54.811Z,0.75
2022-12-31T10:27:48.631Z,0.80
2022-12-31T10:30:20.820Z,0.70
2022-12-31T10:33:12.017Z,0.70
2022-12-31T10:35:53.667Z,1.00
2022-12-31T10:38:38.849Z,0.75
2022-12-31T10:41:23.290Z,0.70
2022-12-31T10:44:07.972Z,0.80
2022-12-31T10:47:07.565Z,0.80
2022-12-31T10:50:01.505Z,0.80
2022-12-31T10:52:52.172Z,1.00
2022-12-31T10:55:48.985Z,0.90
2022-12-31T10:58:51.160Z,0.68
2022-12-31T11:01:25.689Z,0.77
2022-12-31T11:04:23.310Z,0.68
2022-12-31T11:09:56.563Z,0.65
2022-12-31T11:12:41.259Z,0.60
2022-12-31T11:15:25.078Z,0.68
2022-12-31T11:18:17.675Z,0.50
2022-12-31T11:21:05.582Z,0.50
2022-12-31T11:23:57.832Z,0.73
2022-12-31T11:27:16.562Z,0.50
2022-12-31T11:29:48.667Z,0.65
2022-12-31T11:32:35.795Z,0.40
2022-12-31T11:35:23.266Z,0.70
2022-12-31T11:38:19.797Z,0.60
2022-12-31T11:40:59.914Z,0.70
2022-12-31T11:43:35.008Z,0.90
2022-12-31T11:46:33.986Z,0.70
2022-12-31T11:49:13.333Z,0.70
2022-12-31T11:54:32.273Z,0.60
2022-12-31T11:57:10.772Z,0.57
2022-12-31T11:59:37.098Z,0.60
2022-12-31T12:02:27.193Z,0.90
2022-12-31T12:04:56.852Z,0.70
2022-12-31T12:07:23.502Z,0.77
2022-12-31T12:09:51.511Z,0.70
2022-12-31T12:12:17.845Z,1.02
2022-12-31T12:14:45.016Z,0.70
2022-12-31T12:17:18.394Z,0.73
2022-12-31T12:19:47.488Z,0.70
2022-12-31T12:22:25.795Z,0.80
2022-12-31T12:25:01.681Z,0.60
2022-12-31T12:27:36.020Z,0.70
2022-12-31T12:30:23.065Z,0.70
2022-12-31T12:33:00.151Z,0.70
2022-12-31T12:35:29.765Z,0.60
2022-12-31T12:38:05.317Z,0.60
2022-12-31T12:40:34.471Z,0.80
2022-12-31T12:43:01.856Z,0.70
2022-12-31T12:48:13.229Z,0.75
2022-12-31T12:50:44.005Z,0.80
2022-12-31T12:53:44.907Z,0.52
2022-12-31T12:56:36.973Z,0.73
2022-12-31T12:59:37.379Z,0.73
2022-12-31T13:02:22.328Z,0.70
2022-12-31T13:05:12.447Z,1.00
2022-12-31T13:08:01.032Z,0.60
2022-12-31T13:10:53.504Z,0.73
2022-12-31T13:13:39.943Z,0.80
2022-12-31T13:16:31.534Z,0.60
2022-12-31T13:19:07.987Z,0.88
2022-12-31T13:21:40.473Z,0.80
2022-12-31T13:24:21.991Z,0.77
2022-12-31T13:26:55.836Z,0.77
2022-12-31T13:29:26.146Z,1.00
2022-12-31T13:31:54.569Z,0.90
2022-12-31T13:34:25.654Z,1.00
2022-12-31T13:36:54.197Z,0.90
2022-12-31T13:39:25.289Z,1.10
2022-12-31T13:41:58.988Z,1.00
2022-12-31T13:44:37.829Z,0.93
2022-12-31T13:47:33.871Z,1.00
2022-12-31T13:50:29.037Z,1.05
2022-12-31T13:53:16.663Z,1.13
2022-12-31T13:55:56.839Z,0.93
2022-12-31T13:58:41.192Z,0.77
2022-12-31T14:01:20.886Z,0.77
2022-12-31T14:04:11.977Z,1.00
2022-12-31T14:06:44.432Z,1.20
2022-12-31T14:09:16.850Z,1.13
2022-12-31T14:11:59.723Z,1.27
2022-12-31T14:14:36.377Z,1.30
2022-12-31T14:17:17.079Z,1.38
2022-12-31T14:20:01.521Z,2.20
2022-12-31T14:22:44.020Z,3.50
2022-12-31T14:25:39.814Z,3.55
2022-12-31T14:28:13.802Z,3.10
2022-12-31T14:30:43.908Z,3.50
2022-12-31T14:33:34.213Z,3.38
2022-12-31T14:36:39.469Z,2.60
2022-12-31T14:39:26.998Z,4.82
2022-12-31T14:42:11.575Z,4.72
2022-12-31T14:44:46.053Z,4.05
2022-12-31T14:47:27.714Z,3.10
2022-12-31T14:50:05.162Z,3.10
2022-12-31T14:52:34.673Z,4.50
2022-12-31T14:55:10.046Z,3.63
2022-12-31T14:58:09.634Z,5.35
2022-12-31T15:00:33.823Z,6.63
2022-12-31T15:03:04.679Z,6.20
2022-12-31T15:05:34.539Z,6.28
2022-12-31T15:08:20.943Z,7.60
2022-12-31T15:11:30.334Z,6.90
2022-12-31T15:14:25.709Z,7.03
2022-12-31T15:17:04.460Z,7.25
2022-12-31T15:19:55.276Z,6.80
2022-12-31T15:22:36.943Z,6.45
2022-12-31T15:25:04.422Z,5.63
2022-12-31T15:27:35.722Z,4.72
2022-12-31T15:30:03.767Z,3.22
2022-12-31T15:32:42.507Z,2.70
2022-12-31T15:35:20.912Z,2.35
2022-12-31T15:38:10.127Z,2.53
2022-12-31T15:40:48.511Z,2.33
2022-12-31T15:43:25.874Z,2.58
2022-12-31T15:45:54.964Z,2.72
2022-12-31T15:48:43.187Z,2.40
2022-12-31T15:51:17.739Z,3.83
2022-12-31T15:53:50.206Z,5.63
2022-12-31T15:56:23.466Z,5.32
2022-12-31T15:58:54.225Z,5.80
2022-12-31T16:01:29.382Z,4.63
2022-12-31T16:04:02.471Z,2.90
2022-12-31T16:06:31.512Z,3.45
2022-12-31T16:08:58.362Z,4.05
2022-12-31T16:11:25.570Z,4.13
2022-12-31T16:13:54.443Z,11.20
2022-12-31T16:16:22.443Z,25.38
2022-12-31T16:18:49.335Z,7.88
2022-12-31T16:21:33.592Z,8.38
2022-12-31T16:24:03.290Z,15.63
2022-12-31T16:26:43.464Z,18.67
2022-12-31T16:29:18.412Z,18.58
2022-12-31T16:31:46.133Z,14.10
2022-12-31T16:34:15.126Z,11.75
2022-12-31T16:36:42.019Z,10.80
2022-12-31T16:39:25.681Z,8.68
2022-12-31T16:41:53.100Z,6.72
2022-12-31T16:46:57.777Z,7.38
2022-12-31T16:49:25.476Z,11.52
2022-12-31T16:51:54.741Z,9.88
2022-12-31T16:54:29.983Z,8.40
2022-12-31T16:56:58.573Z,10.82
2022-12-31T16:59:35.121Z,10.85
2022-12-31T17:02:05.185Z,10.18
2022-12-31T17:04:31.627Z,18.00
2022-12-31T17:07:27.729Z,44.75
2022-12-31T17:10:32.350Z,18.73
2022-12-31T17:13:28.853Z,10.40
2022-12-31T17:15:47.565Z,6.80
2022-12-31T17:18:26.148Z,6.57
2022-12-31T17:20:54.329Z,6.68
2022-12-31T17:23:28.145Z,8.48
2022-12-31T17:25:59.064Z,7.93
2022-12-31T17:28:26.500Z,7.47
2022-12-31T17:33:22.096Z,5.47
2022-12-31T17:35:55.318Z,6.05
2022-12-31T17:38:21.571Z,7.85
2022-12-31T17:41:06.086Z,8.13
2022-12-31T17:43:35.629Z,8.57
2022-12-31T17:46:03.375Z,9.10
2022-12-31T17:48:29.748Z,9.88
2022-12-31T17:51:00.704Z,9.98
2022-12-31T17:53:27.381Z,16.73
2022-12-31T17:55:59.691Z,15.10
2022-12-31T17:58:31.449Z,11.55
2022-12-31T18:00:59.089Z,9.90
2022-12-31T18:03:25.652Z,11.50
2022-12-31T18:05:52.095Z,11.90
2022-12-31T18:08:18.531Z,12.95
2022-12-31T18:10:45.102Z,11.00
2022-12-31T18:13:18.293Z,9.05
2022-12-31T18:15:45.072Z,9.38
2022-12-31T18:18:24.320Z,9.07
2022-12-31T18:21:03.645Z,7.55
2022-12-31T18:23:41.401Z,8.07
2022-12-31T18:26:13.589Z,10.82
2022-12-31T18:28:39.970Z,8.40
2022-12-31T18:31:06.657Z,8.25
2022-12-31T18:33:33.108Z,6.80
2022-12-31T18:36:14.751Z,6.55
2022-12-31T18:38:41.772Z,6.78
2022-12-31T18:41:17.251Z,7.28
2022-12-31T18:43:43.783Z,7.68
2022-12-31T18:46:14.795Z,9.50
2022-12-31T18:48:41.182Z,8.40
2022-12-31T18:51:13.637Z,17.30
2022-12-31T18:53:40.095Z,18.92
2022-12-31T18:56:10.879Z,17.60
2022-12-31T18:58:37.262Z,23.67
2022-12-31T19:01:04.007Z,13.80
2022-12-31T19:03:30.527Z,15.75
2022-12-31T19:05:56.886Z,11.85
2022-12-31T19:08:23.608Z,10.07
2022-12-31T19:10:51.936Z,7.40
2022-12-31T19:13:19.638Z,7.63
2022-12-31T19:15:51.527Z,8.38
2022-12-31T19:18:18.652Z,10.13
2022-12-31T19:20:45.539Z,11.43
2022-12-31T19:23:18.463Z,13.32
2022-12-31T19:25:45.990Z,13.40
2022-12-31T19:28:18.397Z,12.13
2022-12-31T19:30:45.198Z,11.10
2022-12-31T19:33:11.778Z,10.25
2022-12-31T19:35:39.315Z,9.98
2022-12-31T19:38:11.851Z,9.20
2022-12-31T19:40:40.130Z,9.80
2022-12-31T19:43:14.231Z,10.55
2022-12-31T19:45:42.019Z,10.02
2022-12-31T19:48:17.279Z,12.75
2022-12-31T19:50:52.101Z,13.00
2022-12-31T19:53:22.196Z,16.30
2022-12-31T19:55:49.493Z,14.18
2022-12-31T19:58:22.049Z,14.13
2022-12-31T20:00:54.808Z,12.05
2022-12-31T20:03:23.707Z,9.88
2022-12-31T20:05:50.116Z,9.43
2022-12-31T20:08:17.009Z,8.88
2022-12-31T20:10:43.851Z,8.50
2022-12-31T20:13:10.341Z,7.53
2022-12-31T20:15:40.265Z,9.95
2022-12-31T20:18:06.560Z,9.70
2022-12-31T20:20:32.930Z,9.45
2022-12-31T20:22:59.290Z,10.35
2022-12-31T20:25:25.754Z,9.95
2022-12-31T20:27:53.842Z,10.38
2022-12-31T20:30:20.719Z,13.80
2022-12-31T20:32:47.079Z,12.43
2022-12-31T20:35:13.402Z,10.98
2022-12-31T20:37:39.822Z,12.45
2022-12-31T20:40:06.714Z,11.88
2022-12-31T20:42:33.221Z,12.13
2022-12-31T20:44:59.706Z,10.70
2022-12-31T20:47:26.010Z,11.02
2022-12-31T20:50:11.040Z,9.80
2022-12-31T20:52:38.555Z,11.88
2022-12-31T20:55:05.392Z,11.50
2022-12-31T20:57:33.944Z,13.38
2022-12-31T21:00:00.915Z,11.02
2022-12-31T21:02:40.888Z,13.55
2022-12-31T21:05:09.307Z,12.75
2022-12-31T21:07:35.885Z,12.77
2022-12-31T21:10:02.283Z,13.65
2022-12-31T21:12:28.580Z,12.07
2022-12-31T21:14:54.985Z,12.95
2022-12-31T21:17:21.307Z,12.98
2022-12-31T21:19:47.638Z,11.57
2022-12-31T21:22:13.970Z,12.63
2022-12-31T21:24:40.259Z,11.15
2022-12-31T21:27:06.716Z,11.05
2022-12-31T21:29:35.510Z,12.10
2022-12-31T21:32:03.884Z,11.48
2022-12-31T21:34:30.283Z,11.07
2022-12-31T21:36:56.600Z,10.73
2022-12-31T21:39:22.995Z,9.95
2022-12-31T21:41:49.316Z,9.73
2022-12-31T21:44:15.618Z,8.68
2022-12-31T21:47:00.895Z,8.35
2022-12-31T21:49:28.334Z,8.77
2022-12-31T21:51:54.667Z,8.82
2022-12-31T21:54:21.045Z,8.73
2022-12-31T21:56:47.343Z,10.75
2022-12-31T21:59:13.766Z,10.23
2022-12-31T22:01:41.314Z,10.48
2022-12-31T22:04:12.945Z,10.27
2022-12-31T22:06:48.782Z,11.38
2022-12-31T22:09:15.204Z,14.45
2022-12-31T22:11:41.546Z,13.45
2022-12-31T22:14:08.909Z,11.18
2022-12-31T22:19:01.723Z,10.38
2022-12-31T22:21:29.481Z,9.95
2022-12-31T22:23:56.736Z,10.00
2022-12-31T22:26:25.710Z,8.27
2022-12-31T22:28:52.291Z,9.80
2022-12-31T22:31:21.724Z,9.35
2022-12-31T22:33:48.171Z,11.48
2022-12-31T22:36:18.308Z,11.50
2022-12-31T22:38:45.640Z,10.70
2022-12-31T22:41:14.782Z,10.63
2022-12-31T22:43:43.754Z,13.02
2022-12-31T22:46:13.170Z,16.05
2022-12-31T22:48:40.798Z,19.02
2022-12-31T22:51:08.154Z,22.48
2022-12-31T22:53:35.139Z,21.27
2022-12-31T22:56:01.626Z,24.48
2022-12-31T22:58:27.988Z,27.67
2022-12-31T23:00:54.437Z,28.55
2022-12-31T23:03:20.857Z,134.27
2022-12-31T23:05:50.574Z,62.22
2022-12-31T23:08:23.229Z,105.93
2022-12-31T23:13:17.349Z,224.52
2022-12-31T23:15:45.035Z,230.13
2022-12-31T23:18:11.380Z,229.15
2022-12-31T23:20:37.982Z,212.30
2022-12-31T23:23:05.416Z,195.05
2022-12-31T23:27:58.852Z,158.65
2022-12-31T23:30:25.269Z,227.32
2022-12-31T23:32:51.651Z,169.57
2022-12-31T23:35:18.030Z,175.75
2022-12-31T23:37:44.454Z,159.63
2022-12-31T23:40:17.219Z,107.10
2022-12-31T23:42:47.308Z,73.95
2022-12-31T23:45:13.586Z,62.88
2022-12-31T23:47:40.012Z,48.38
2022-12-31T23:50:07.017Z,29.08
2022-12-31T23:52:33.303Z,24.60
2022-12-31T23:55:00.059Z,20.15
2022-12-31T23:57:26.468Z,15.50
2022-12-31T23:59:52.786Z,15.40
